Latest Weather Observations for Casey*

IDT60801

Issued at 6:05 pm EST Thursday 21 August 2014 (issued every 30 minutes, with the page automatically refreshed every 10 minutes)

About weather observations | Map of weather stations | Latest weather observations for ANT | Other Formats
Station Details ID: 300017 Name: CASEY Lat: -66.28 Lon: 110.52 Height: 40.0 m
Data from the previous 72 hours. | See also: Recent months at Casey*
Date/Time
EST
Temp
°C
App
Temp
°C
Dew
Point
Rel
Hum
%
Delta-T
°C
Wind Press
QNH
hPa
Press
MSL
hPa
Rain
since 9 am
mm
Dir
 
Spd
km/h
Gust
km/h
Spd
kts
Gust
kts
21/06:00pm -27.6 -33.9 -30.8 74 - SE 13 15 7 8 982.5 - -
21/05:30pm -27.0 -33.3 -30.1 75 - SE 13 15 7 8 982.6 - -
21/05:00pm -27.7 -34.4 -30.9 74 - SE 15 17 8 9 982.8 - -
21/04:30pm -26.2 -31.7 -29.0 77 - SE 9 11 5 6 983.1 - -
21/04:00pm -26.7 -33.0 -29.6 76 - SE 13 15 7 8 983.3 983.9 -
21/03:30pm -26.6 -33.7 -29.5 76 - SE 17 17 9 9 983.6 - -
21/03:00pm -26.7 -33.8 -29.8 75 - SE 17 19 9 10 984.0 - -
21/02:30pm -26.2 -33.6 -29.0 77 - SE 19 20 10 11 984.2 - -
21/02:00pm -26.8 -34.8 -29.7 76 - SSE 22 24 12 13 984.3 - -
21/01:30pm -26.9 -34.5 -29.8 76 - SSE 20 22 11 12 984.5 - -
21/01:00pm -26.1 -33.7 -28.6 79 - SSE 20 22 11 12 984.5 985.0 -
21/12:30pm -26.2 -33.2 -28.9 78 - SSE 17 19 9 10 984.5 - -
21/12:00pm -27.5 -34.6 -30.4 76 - SSE 17 20 9 11 984.7 - -
21/11:30am -27.2 -32.7 -30.1 76 - SSE 9 13 5 7 984.6 - -
21/11:00am -27.6 -33.1 -30.5 76 - SSE 9 13 5 7 984.9 - -
21/10:30am -27.5 -32.7 -30.4 76 - SSE 7 9 4 5 984.8 - -
21/10:00am -28.0 -33.6 -31.0 75 - SSE 9 11 5 6 984.6 985.1 -
21/09:30am -28.1 -34.0 -31.1 75 - SSE 11 15 6 8 984.7 - -
21/09:00am -29.0 -35.3 -32.1 75 - SSE 13 17 7 9 984.8 - -
21/08:30am -28.6 -34.2 -31.6 75 - SSE 9 11 5 6 984.7 - -
21/08:00am -28.5 -34.8 -31.5 75 - SSE 13 13 7 7 984.7 - -
21/07:30am -28.3 -34.6 -31.5 74 - SSE 13 15 7 8 984.7 - -
21/07:00am -27.6 -33.9 -30.8 74 - SSE 13 15 7 8 984.6 985.1 -
21/06:30am -29.0 -35.3 -32.4 72 - SSE 13 15 7 8 984.7 - -
21/06:00am -29.3 -35.3 -32.9 71 - SSE 11 13 6 7 984.6 - -
21/05:30am -29.1 -35.4 -32.8 70 - SSE 13 17 7 9 984.9 - -
21/05:00am -28.7 -33.7 -32.4 70 - SSE 6 7 3 4 985.2 - -
21/04:30am -29.3 -34.9 -33.1 70 - SSE 9 9 5 5 985.4 - -
21/04:00am -28.7 -33.9 -32.6 69 - SSE 7 9 4 5 985.6 986.1 -
21/03:30am -28.8 -34.4 -32.5 70 - SSE 9 11 5 6 985.8 - -
21/03:00am -29.7 -35.7 -33.4 70 - SSE 11 15 6 8 985.9 - -
21/02:30am -29.6 -35.9 -33.4 70 - SSE 13 15 7 8 986.1 - -
21/02:00am -28.7 -34.3 -32.6 69 - SSE 9 11 5 6 986.1 - -
21/01:30am -28.6 -34.6 -32.5 69 - SSE 11 13 6 7 986.1 - -
21/01:00am -29.3 -35.3 -33.1 70 - SSE 11 13 6 7 986.5 987.0 -
21/12:30am -29.4 -35.4 -33.2 70 - SSE 11 15 6 8 986.6 - -
21/12:00am -28.9 -35.2 -32.8 69 - SSE 13 17 7 9 986.6 - -
 
Date/Time
EST
Temp
°C
App
Temp
°C
Dew
Point
Rel
Hum
%
Delta-T
°C
Wind Press
QNH
hPa
Press
MSL
hPa
Rain
since 9 am
mm
Dir
 
Spd
km/h
Gust
km/h
Spd
kts
Gust
kts
20/11:30pm -27.8 -32.8 -31.4 71 - SSE 6 9 3 5 986.7 - -
20/11:00pm -27.8 -33.7 -31.6 70 - SSE 11 15 6 8 986.8 - -
20/10:30pm -28.2 -34.5 -31.8 71 - SSE 13 15 7 8 986.6 - -
20/10:00pm -27.9 -33.8 -31.4 72 - SSE 11 15 6 8 986.8 987.3 -
20/09:30pm -28.2 -34.5 -31.8 71 - SSE 13 13 7 7 986.8 - -
20/09:00pm -27.9 -33.8 -31.5 71 - SSE 11 13 6 7 987.0 - -
20/08:30pm -27.7 -32.9 -31.3 71 - SSE 7 9 4 5 987.2 - -
20/08:00pm -28.0 -33.0 -31.6 71 - SSE 6 9 3 5 987.2 - -
20/07:30pm -27.8 -33.0 -31.4 71 - SSE 7 11 4 6 986.9 - -
20/07:00pm -27.9 -33.8 -31.5 71 - SSE 11 13 6 7 986.9 987.4 -
20/06:30pm -27.1 -32.3 -30.7 71 - SSE 7 11 4 6 987.0 - -
20/06:00pm -26.5 -31.1 -30.1 72 - SSE 4 7 2 4 986.9 - -
20/05:30pm -27.4 -33.0 -31.2 70 - SSE 9 15 5 8 986.6 - -
20/05:00pm -26.2 -30.4 -29.7 72 - SSE 2 6 1 3 986.4 - -
20/04:30pm -26.6 -32.1 -30.1 72 - SSE 9 11 5 6 986.4 - -
20/04:00pm -26.5 -33.6 -30.1 72 - SSE 17 19 9 10 986.3 986.8 -
20/03:30pm -26.1 -32.0 -29.8 71 - SSE 11 15 6 8 986.3 - -
20/03:00pm -25.7 -32.0 -28.9 74 - SSE 13 15 7 8 986.2 - -
20/02:30pm -25.6 -31.1 -28.6 76 - SSE 9 11 5 6 986.1 - -
20/02:00pm -26.1 -32.0 -29.2 75 - SSE 11 15 6 8 986.2 - -
20/01:30pm -25.8 -33.2 -29.3 72 - SSE 19 20 10 11 985.9 - -
20/01:00pm -25.3 -32.9 -28.3 76 - SSE 20 24 11 13 985.7 986.2 -
20/12:30pm -25.9 -33.5 -28.7 77 - SSE 20 24 11 13 985.6 - -
20/12:00pm -26.0 -34.8 -28.9 77 - SSE 26 30 14 16 985.4 - -
20/11:30am -24.9 -32.5 -27.6 78 - SSE 20 24 11 13 985.4 - -
20/11:00am -24.9 -31.9 -27.6 78 - SSE 17 20 9 11 985.4 - -
20/10:30am -24.9 -31.9 -27.6 78 - SSE 17 20 9 11 985.1 - -
20/10:00am -25.5 -32.2 -28.2 78 - SSE 15 20 8 11 984.9 985.4 -
20/09:30am -25.7 -32.7 -28.5 77 - SSE 17 22 9 12 984.7 - -
20/09:00am -25.8 -34.2 -28.6 77 - SSE 24 30 13 16 984.6 - -
20/08:30am -25.5 -33.5 -28.2 78 - SSE 22 28 12 15 984.6 - -
20/08:00am -25.7 -33.7 -28.5 77 - SSE 22 28 12 15 984.5 - -
20/07:30am -25.6 -34.0 -28.4 77 - SSE 24 32 13 17 984.4 - -
20/07:00am -25.4 -33.0 -28.1 78 - SSE 20 26 11 14 984.4 984.9 -
20/06:30am -25.3 -33.7 -28.0 78 - SSE 24 32 13 17 984.6 - -
20/06:00am -25.0 -34.1 -27.7 78 - SSE 28 33 15 18 984.5 - -
20/05:30am -24.8 -32.8 -27.5 78 - SSE 22 30 12 16 984.6 - -
20/05:00am -24.9 -32.5 -27.6 78 - SSE 20 26 11 14 984.8 - -
20/04:30am -24.4 -31.4 -27.1 78 - SSE 17 22 9 12 984.8 - -
20/04:00am -24.6 -31.6 -27.3 78 - SSE 17 20 9 11 984.9 985.4 -
20/03:30am -24.2 -32.5 -26.9 78 - SSE 24 33 13 18 984.9 - -
20/03:00am -24.1 -32.1 -26.8 78 - SSE 22 26 12 14 985.1 - -
20/02:30am -24.3 -33.0 -27.0 78 - SSE 26 32 14 17 985.0 - -
20/02:00am -24.1 -32.8 -26.7 79 - SSE 26 30 14 16 985.0 - -
20/01:30am -23.7 -32.0 -26.3 79 - SSE 24 30 13 16 984.8 - -
20/01:00am -23.4 -31.7 -26.0 79 - SSE 24 30 13 16 984.8 985.3 -
20/12:30am -23.1 -30.6 -25.7 79 - SSE 20 26 11 14 984.8 - -
20/12:00am -23.0 -31.3 -25.6 79 - SSE 24 30 13 16 984.7 - -
 
Date/Time
EST
Temp
°C
App
Temp
°C
Dew
Point
Rel
Hum
%
Delta-T
°C
Wind Press
QNH
hPa
Press
MSL
hPa
Rain
since 9 am
mm
Dir
 
Spd
km/h
Gust
km/h
Spd
kts
Gust
kts
19/11:30pm -23.0 -31.7 -25.6 79 - SSE 26 33 14 18 984.6 - -
19/11:00pm -22.8 -31.5 -25.3 80 - SSE 26 32 14 17 984.6 - -
19/10:30pm -22.5 -30.8 -25.0 80 - SSE 24 30 13 16 984.5 - -
19/10:00pm -22.8 -30.3 -25.4 79 - SSE 20 26 11 14 984.7 985.2 -
19/09:30pm -22.9 -29.5 -25.5 79 - SSE 15 20 8 11 984.8 - -
19/09:00pm -23.1 -30.1 -25.7 79 - SSE 17 20 9 11 984.8 - -
19/08:30pm -23.2 -30.2 -25.8 79 - SSE 17 22 9 12 984.8 - -
19/08:00pm -22.8 -28.6 -25.4 79 - SSE 11 17 6 9 984.7 - -
19/07:30pm -23.2 -29.4 -25.7 80 - SSE 13 17 7 9 984.5 - -
19/07:00pm -23.4 -29.6 -26.0 79 - SSE 13 17 7 9 984.6 985.1 -
19/06:30pm -23.1 -30.5 -25.7 79 - SSE 19 24 10 13 984.4 - -
19/06:00pm -22.8 -30.2 -25.3 80 - SSE 19 24 10 13 984.1 - -
19/05:30pm -22.7 -29.3 -25.2 80 - SSE 15 19 8 10 983.8 - -
19/05:00pm -22.4 -27.8 -24.9 80 - SSE 9 11 5 6 983.5 - -
19/04:30pm -22.9 -29.9 -25.4 80 - SSE 17 20 9 11 983.3 - -
19/04:00pm -23.6 -31.5 -26.3 78 - SSE 22 26 12 14 983.4 984.0 -
19/03:30pm -23.5 -31.1 -26.1 79 - SSE 20 26 11 14 983.4 - -
19/03:00pm -23.5 -30.5 -26.2 78 - SSE 17 20 9 11 983.3 - -
19/02:30pm -23.3 -30.9 -25.9 79 - SSE 20 24 11 13 983.1 - -
19/02:00pm -23.4 -29.6 -26.0 79 - SSE 13 19 7 10 983.2 - -
19/01:30pm -23.6 -30.2 -26.2 79 - SSE 15 20 8 11 982.9 - -
19/01:00pm -23.7 -30.7 -26.4 78 - SSE 17 22 9 12 982.9 983.5 -
19/12:30pm -23.7 -30.3 -26.3 79 - SSE 15 19 8 10 982.8 - -
19/12:00pm -23.7 -29.9 -26.3 79 - SSE 13 19 7 10 982.5 - -
19/11:30am -24.0 -30.2 -26.7 78 - SSE 13 17 7 9 982.4 - -
19/11:00am -24.0 -29.5 -26.7 78 - SSE 9 13 5 7 982.1 - -
19/10:30am -24.1 -30.0 -26.8 78 - SSE 11 15 6 8 981.9 - -
19/10:00am -24.1 -30.0 -26.8 78 - SSE 11 13 6 7 981.9 982.5 -
19/09:30am -24.1 -29.6 -26.8 78 - SSE 9 13 5 7 981.6 - -
19/09:00am -23.8 -30.4 -26.5 78 - SSE 15 17 8 9 981.5 - -
19/08:30am -23.9 -29.8 -26.5 79 - SSE 11 15 6 8 981.2 - -
19/08:00am -24.2 -30.4 -26.9 78 - SSE 13 17 7 9 981.1 - -
19/07:30am -24.4 -31.0 -27.1 78 - SSE 15 17 8 9 980.8 - -
19/07:00am -24.2 -29.7 -26.9 78 - SSE 9 15 5 8 980.8 981.4 -
19/06:30am -23.9 -28.8 -26.5 79 - SSE 6 7 3 4 980.7 - -
19/06:00am -24.3 -29.2 -27.0 78 - SSE 6 9 3 5 980.5 - -
19/05:30am -24.2 -29.1 -26.9 78 - SSE 6 7 3 4 980.4 - -
19/05:00am -25.0 -30.1 -27.7 78 - SSE 7 9 4 5 980.2 - -
19/04:30am -26.2 -31.3 -29.1 77 - SSE 7 9 4 5 980.0 - -
19/04:00am -27.1 -32.6 -30.2 75 - SSE 9 15 5 8 980.0 980.6 -
19/03:30am -26.1 -32.0 -28.9 77 - SSE 11 13 6 7 980.0 - -
19/03:00am -27.1 -33.8 -30.2 75 - SSE 15 20 8 11 979.8 - -
19/02:30am -28.0 -35.1 -31.2 74 - SSE 17 19 9 10 979.8 - -
19/02:00am -28.3 -35.0 -31.5 74 - SSE 15 17 8 9 979.5 - -
19/01:30am -28.5 -34.8 -31.8 73 - SSE 13 15 7 8 979.4 - -
19/01:00am -28.2 -34.5 -31.5 73 - SSE 13 15 7 8 979.4 980.0 -
19/12:30am -28.0 -34.3 -31.2 74 - SSE 13 15 7 8 979.2 - -
19/12:00am -28.1 -34.4 -31.3 74 - SSE 13 15 7 8 979.1 - -
 
Date/Time
EST
Temp
°C
App
Temp
°C
Dew
Point
Rel
Hum
%
Delta-T
°C
Wind Press
QNH
hPa
Press
MSL
hPa
Rain
since 9 am
mm
Dir
 
Spd
km/h
Gust
km/h
Spd
kts
Gust
kts
18/11:30pm -28.1 -34.4 -31.3 74 - SSE 13 15 7 8 978.6 - -
18/11:00pm -28.4 -34.3 -31.7 73 - SSE 11 13 6 7 978.3 - -
18/10:30pm -28.4 -34.0 -31.7 73 - SSE 9 11 5 6 977.9 - -
18/10:00pm -27.8 -33.7 -31.0 74 - SSE 11 11 6 6 977.6 978.1 -
18/09:30pm -28.5 -34.4 -31.8 73 - SSE 11 13 6 7 977.4 - -
18/09:00pm -28.0 -33.9 -31.2 74 - SSE 11 13 6 7 977.1 - -
18/08:30pm -28.3 -34.6 -31.5 74 - SSE 13 15 7 8 976.9 - -

Other Formats:

Comma delimited format used in spreadsheet applications
http://www.bom.gov.au/fwo/IDT60803/IDT60803.89611.axf

JavaScript Object Notation format (JSON) in row-major order
http://www.bom.gov.au/fwo/IDT60803/IDT60803.89611.json